Time;durP1;ratioP1;P1;durP2;ratioP2;P2;SDS_P1;SDS_P2;PMS_P1;PMS_P2;Temp;Humidity;BMP_temperature;BMP_pressure;BME280_temperature;BME280_humidity;BME280_pressure;Samples;Min_cycle;Max_cycle;Signal;HPM_P1;HPM_P2
2022/04/24 00:00:17;;;;;;;;;;;;;;;;;;5041690;28;19924;-85
2022/04/24 00:02:44;;;;;;;;;;;;;;;;;;5044553;28;19950;-85
2022/04/24 00:05:10;;;;;;;;;;;;;;;;;;5061505;28;20525;-85
2022/04/24 00:07:36;;;;;;;;;;;;;;;;;;5045834;28;20328;-85
2022/04/24 00:10:05;;;;;;;;;;;;;;;;;;5067759;28;19965;-84
2022/04/24 00:12:32;;;;;;;;;;;;;;;;;;5063078;28;20931;-86
2022/04/24 00:15:00;;;;;;;;;;;;;;;;;;5042707;28;21837;-85
2022/04/24 00:17:29;;;;;;;;;;;;;;;;;;5062759;28;19924;-86
2022/04/24 00:19:55;;;;;;;;;;;;;;;;;;5058897;28;19924;-86
2022/04/24 00:22:25;;;;;;;;;;;;;;;;;;5064360;28;19932;-85
2022/04/24 00:24:54;;;;;;;;;;;;;;;;;;5062598;28;20015;-86
2022/04/24 00:27:20;;;;;;;;;;;;;;;;;;5066023;28;19966;-85
2022/04/24 00:29:46;;;;;;;;;;;;;;;;;;5078059;27;20023;-85
2022/04/24 00:32:26;;;;;;;;;;;;;;;;;;5066162;28;20384;-85
2022/04/24 00:34:56;;;;;;;;;;;;;;;;;;4992783;28;19924;-85
2022/04/24 00:37:22;;;;;;;;;;;;;;;;;;5046537;28;19935;-85
2022/04/24 00:39:50;;;;;;;;;;;;;;;;;;5031266;28;19928;-85
2022/04/24 00:42:19;;;;;;;;;;;;;;;;;;5057806;28;19987;-85
2022/04/24 00:44:46;;;;;;;;;;;;;;;;;;5045108;28;19932;-85
2022/04/24 00:47:13;;;;;;;;;;;;;;;;;;5039775;28;20026;-85
2022/04/24 00:49:44;;;;;;;;;;;;;;;;;;5061744;28;21420;-85
2022/04/24 00:52:26;;;;;;;;;;;;;;;;;;5061770;28;22512;-85
2022/04/24 00:54:52;;;;;;;;;;;;;;;;;;5044270;28;20381;-85
2022/04/24 00:57:19;;;;;;;;;;;;;;;;;;5062091;28;20357;-86
2022/04/24 00:59:45;;;;;;;;;;;;;;;;;;5047323;28;19947;-86
2022/04/24 01:02:13;;;;;;;;;;;;;;;;;;5068690;28;22822;-85
2022/04/24 01:04:39;;;;;;;;;;;;;;;;;;5065514;28;20089;-85
2022/04/24 01:07:05;;;;;;;;;;;;;;;;;;5036041;28;20782;-86
2022/04/24 01:09:30;;;;;;;;;;;;;;;;;;5042867;28;20018;-86
2022/04/24 01:11:56;;;;;;;;;;;;;;;;;;5047263;28;20342;-86
2022/04/24 01:14:22;;;;;;;;;;;;;;;;;;5048668;28;19928;-85
2022/04/24 01:16:48;;;;;;;;;;;;;;;;;;5047077;28;19932;-85
2022/04/24 01:19:14;;;;;;;;;;;;;;;;;;5061925;28;19931;-85
2022/04/24 01:21:42;;;;;;;;;;;;;;;;;;5041537;28;20262;-86
2022/04/24 01:24:09;;;;;;;;;;;;;;;;;;5054473;28;19920;-85
2022/04/24 01:26:35;;;;;;;;;;;;;;;;;;5042901;28;19931;-86
2022/04/24 01:29:02;;;;;;;;;;;;;;;;;;5034218;28;19932;-85
2022/04/24 01:31:29;;;;;;;;;;;;;;;;;;5064584;28;19920;-86
2022/04/24 01:33:55;;;;;;;;;;;;;;;;;;5040918;28;19925;-86
2022/04/24 01:36:26;;;;;;;;;;;;;;;;;;5078192;28;19939;-85
2022/04/24 01:38:52;;;;;;;;;;;;;;;;;;5043833;28;20419;-85
2022/04/24 01:41:27;;;;;;;;;;;;;;;;;;5068792;28;19939;-85
2022/04/24 01:43:54;;;;;;;;;;;;;;;;;;5060743;28;19936;-86
2022/04/24 01:46:20;;;;;;;;;;;;;;;;;;5053846;28;19920;-85
2022/04/24 01:48:47;;;;;;;;;;;;;;;;;;5054858;28;19920;-85
2022/04/24 01:51:15;;;;;;;;;;;;;;;;;;5044399;28;19964;-85
2022/04/24 01:53:40;;;;;;;;;;;;;;;;;;5037825;28;19924;-85
2022/04/24 01:56:08;;;;;;;;;;;;;;;;;;5066430;28;19931;-85
2022/04/24 01:58:34;;;;;;;;;;;;;;;;;;5050778;28;19932;-86
2022/04/24 02:01:00;;;;;;;;;;;;;;;;;;5053008;28;20026;-86
2022/04/24 02:03:30;;;;;;;;;;;;;;;;;;5065592;28;19959;-85
2022/04/24 02:05:57;;;;;;;;;;;;;;;;;;5063164;28;20466;-85
2022/04/24 02:08:24;;;;;;;;;;;;;;;;;;5065819;28;19920;-85
2022/04/24 02:11:06;;;;;;;;;;;;;;;;;;5040308;28;20336;-85
2022/04/24 02:13:32;;;;;;;;;;;;;;;;;;5040814;28;19928;-85
2022/04/24 02:16:01;;;;;;;;;;;;;;;;;;5012347;28;19928;-85
2022/04/24 02:18:28;;;;;;;;;;;;;;;;;;5044768;28;20580;-85
2022/04/24 02:20:54;;;;;;;;;;;;;;;;;;5021487;28;19955;-85
2022/04/24 02:23:21;;;;;;;;;;;;;;;;;;5024236;28;19945;-85
2022/04/24 02:25:47;;;;;;;;;;;;;;;;;;5029252;28;20291;-85
2022/04/24 02:28:13;;;;;;;;;;;;;;;;;;4987502;28;20084;-85
2022/04/24 02:30:39;;;;;;;;;;;;;;;;;;5025853;28;19929;-85
2022/04/24 02:33:20;;;;;;;;;;;;;;;;;;5020916;28;19982;-85
2022/04/24 02:35:55;;;;;;;;;;;;;;;;;;5024013;28;19982;-85
2022/04/24 02:38:21;;;;;;;;;;;;;;;;;;5023754;28;20336;-85
2022/04/24 02:40:47;;;;;;;;;;;;;;;;;;5025150;28;19947;-85
2022/04/24 02:43:13;;;;;;;;;;;;;;;;;;5056917;28;19932;-85
2022/04/24 02:45:40;;;;;;;;;;;;;;;;;;5044687;28;20015;-85
2022/04/24 02:48:16;;;;;;;;;;;;;;;;;;5066044;28;19980;-85
2022/04/24 02:50:42;;;;;;;;;;;;;;;;;;5052264;28;19935;-85
2022/04/24 02:53:09;;;;;;;;;;;;;;;;;;5073372;27;19928;-85
2022/04/24 02:55:35;;;;;;;;;;;;;;;;;;5047765;28;19928;-85
2022/04/24 02:58:01;;;;;;;;;;;;;;;;;;5063337;28;20468;-85
2022/04/24 03:00:39;;;;;;;;;;;;;;;;;;5046036;28;20014;-85
2022/04/24 03:03:05;;;;;;;;;;;;;;;;;;5035224;28;19986;-85
2022/04/24 03:05:31;;;;;;;;;;;;;;;;;;5049805;28;19924;-85
2022/04/24 03:07:57;;;;;;;;;;;;;;;;;;5041896;28;19947;-85
2022/04/24 03:10:23;;;;;;;;;;;;;;;;;;5045375;28;19928;-85
2022/04/24 03:12:49;;;;;;;;;;;;;;;;;;5062375;28;20037;-86
2022/04/24 03:15:15;;;;;;;;;;;;;;;;;;5036390;28;19978;-85
2022/04/24 03:17:41;;;;;;;;;;;;;;;;;;5034509;28;19927;-85
2022/04/24 03:20:07;;;;;;;;;;;;;;;;;;5044704;28;19928;-85
2022/04/24 03:22:33;;;;;;;;;;;;;;;;;;5034072;28;19932;-85
2022/04/24 03:24:59;;;;;;;;;;;;;;;;;;5035152;28;19980;-85
2022/04/24 03:27:25;;;;;;;;;;;;;;;;;;5081180;28;19920;-85
2022/04/24 03:29:52;;;;;;;;;;;;;;;;;;5054379;28;19927;-84
2022/04/24 03:32:17;;;;;;;;;;;;;;;;;;5036782;28;19927;-85
2022/04/24 03:34:43;;;;;;;;;;;;;;;;;;5078103;27;19924;-85
2022/04/24 03:37:11;;;;;;;;;;;;;;;;;;5044067;28;19965;-85
2022/04/24 03:39:37;;;;;;;;;;;;;;;;;;5064682;28;20732;-85
2022/04/24 03:42:03;;;;;;;;;;;;;;;;;;5066339;28;19933;-85
2022/04/24 03:44:29;;;;;;;;;;;;;;;;;;5047760;28;20379;-85
2022/04/24 03:46:54;;;;;;;;;;;;;;;;;;5038954;28;20019;-85
2022/04/24 03:49:20;;;;;;;;;;;;;;;;;;5055075;28;19928;-85
2022/04/24 03:51:46;;;;;;;;;;;;;;;;;;5083899;28;19920;-85
2022/04/24 03:54:12;;;;;;;;;;;;;;;;;;5051738;28;21110;-86
2022/04/24 03:56:38;;;;;;;;;;;;;;;;;;5085413;28;19939;-85
2022/04/24 03:59:04;;;;;;;;;;;;;;;;;;5069620;28;19927;-85
2022/04/24 04:01:30;;;;;;;;;;;;;;;;;;5038514;28;19920;-85
2022/04/24 04:03:57;;;;;;;;;;;;;;;;;;5047309;28;19931;-86
2022/04/24 04:06:23;;;;;;;;;;;;;;;;;;5085023;28;19973;-86
2022/04/24 04:08:50;;;;;;;;;;;;;;;;;;5066228;28;19932;-85
2022/04/24 04:11:16;;;;;;;;;;;;;;;;;;5044559;28;19924;-86
2022/04/24 04:13:42;;;;;;;;;;;;;;;;;;5052089;28;19931;-85
2022/04/24 04:16:08;;;;;;;;;;;;;;;;;;5044273;28;20214;-86
2022/04/24 04:18:34;;;;;;;;;;;;;;;;;;5065553;28;19920;-85
2022/04/24 04:21:00;;;;;;;;;;;;;;;;;;5034654;28;19920;-85
2022/04/24 04:23:26;;;;;;;;;;;;;;;;;;5036854;28;20043;-85
2022/04/24 04:25:52;;;;;;;;;;;;;;;;;;5051120;28;19924;-85
2022/04/24 04:28:17;;;;;;;;;;;;;;;;;;5048829;28;19942;-86
2022/04/24 04:30:43;;;;;;;;;;;;;;;;;;5050445;28;19925;-86
2022/04/24 04:33:09;;;;;;;;;;;;;;;;;;5056072;28;20419;-85
2022/04/24 04:35:35;;;;;;;;;;;;;;;;;;5060057;28;19928;-85
2022/04/24 04:38:01;;;;;;;;;;;;;;;;;;5049580;28;20007;-85
2022/04/24 04:40:27;;;;;;;;;;;;;;;;;;5054242;28;19924;-85
2022/04/24 04:42:53;;;;;;;;;;;;;;;;;;5047012;28;19932;-85
2022/04/24 04:45:19;;;;;;;;;;;;;;;;;;5087215;27;19927;-85
2022/04/24 04:47:47;;;;;;;;;;;;;;;;;;5054587;28;19955;-85
2022/04/24 04:50:13;;;;;;;;;;;;;;;;;;5047546;28;19978;-85
2022/04/24 04:52:39;;;;;;;;;;;;;;;;;;5058340;28;19928;-85
2022/04/24 04:55:05;;;;;;;;;;;;;;;;;;5052403;28;19928;-85
2022/04/24 04:57:30;;;;;;;;;;;;;;;;;;5037966;28;19935;-85
2022/04/24 04:59:56;;;;;;;;;;;;;;;;;;5048754;28;19932;-85
2022/04/24 05:02:23;;;;;;;;;;;;;;;;;;5035551;28;19985;-85
2022/04/24 05:04:49;;;;;;;;;;;;;;;;;;5053021;28;19928;-85
2022/04/24 05:07:15;;;;;;;;;;;;;;;;;;5076781;28;19935;-86
2022/04/24 05:09:41;;;;;;;;;;;;;;;;;;5057269;28;19920;-85
2022/04/24 05:12:07;;;;;;;;;;;;;;;;;;5066358;28;20394;-85
2022/04/24 05:14:33;;;;;;;;;;;;;;;;;;5051856;28;19924;-85
2022/04/24 05:16:59;;;;;;;;;;;;;;;;;;5045001;28;20282;-85
2022/04/24 05:19:28;;;;;;;;;;;;;;;;;;5060510;28;19930;-85
2022/04/24 05:21:54;;;;;;;;;;;;;;;;;;5066225;28;19935;-85
2022/04/24 05:24:20;;;;;;;;;;;;;;;;;;5067974;28;20285;-85
2022/04/24 05:26:46;;;;;;;;;;;;;;;;;;5054852;28;20757;-85
2022/04/24 05:29:12;;;;;;;;;;;;;;;;;;5076933;28;19999;-85
2022/04/24 05:31:38;;;;;;;;;;;;;;;;;;5082256;28;19928;-84
2022/04/24 05:34:04;;;;;;;;;;;;;;;;;;5039938;28;20403;-85
2022/04/24 05:36:30;;;;;;;;;;;;;;;;;;5051986;28;19927;-85
2022/04/24 05:38:56;;;;;;;;;;;;;;;;;;5059020;28;19931;-85
2022/04/24 05:41:22;;;;;;;;;;;;;;;;;;5053270;28;19924;-84
2022/04/24 05:43:48;;;;;;;;;;;;;;;;;;5051335;28;20032;-84
2022/04/24 05:46:14;;;;;;;;;;;;;;;;;;5027914;28;20462;-85
2022/04/24 05:48:40;;;;;;;;;;;;;;;;;;5083638;28;21982;-84
2022/04/24 05:51:06;;;;;;;;;;;;;;;;;;5046166;28;19943;-85
2022/04/24 05:53:32;;;;;;;;;;;;;;;;;;5082132;28;19937;-86
2022/04/24 05:55:58;;;;;;;;;;;;;;;;;;5065546;28;19935;-84
2022/04/24 05:58:23;;;;;;;;;;;;;;;;;;5589162;22;19927;-81
2022/04/24 06:00:49;;;;;;;;;;;;;;;;;;5049720;28;20054;-81
2022/04/24 06:03:15;;;;;;;;;;;;;;;;;;5035959;28;19931;-81
2022/04/24 06:05:41;;;;;;;;;;;;;;;;;;5070654;28;19932;-81
2022/04/24 06:08:07;;;;;;;;;;;;;;;;;;5047416;28;20263;-81
2022/04/24 06:10:33;;;;;;;;;;;;;;;;;;5053460;28;20558;-81
2022/04/24 06:12:59;;;;;;;;;;;;;;;;;;5028549;28;20285;-81
2022/04/24 06:15:25;;;;;;;;;;;;;;;;;;5055565;28;19924;-81
2022/04/24 06:17:51;;;;;;;;;;;;;;;;;;5056534;28;19959;-81
2022/04/24 06:20:17;;;;;;;;;;;;;;;;;;5073008;28;19920;-81
2022/04/24 06:22:43;;;;;;;;;;;;;;;;;;5034800;28;19930;-81
2022/04/24 06:25:09;;;;;;;;;;;;;;;;;;5033510;28;20023;-82
2022/04/24 06:27:35;;;;;;;;;;;;;;;;;;5040869;28;20051;-81
2022/04/24 06:30:01;;;;;;;;;;;;;;;;;;5036104;28;19920;-82
2022/04/24 06:32:28;;;;;;;;;;;;;;;;;;5058503;28;20619;-81
2022/04/24 06:34:54;;;;;;;;;;;;;;;;;;5036939;28;20015;-82
2022/04/24 06:37:20;;;;;;;;;;;;;;;;;;5061004;28;20061;-81
2022/04/24 06:39:46;;;;;;;;;;;;;;;;;;5049558;28;19935;-82
2022/04/24 06:42:12;;;;;;;;;;;;;;;;;;5045611;28;20666;-82
2022/04/24 06:44:38;;;;;;;;;;;;;;;;;;5051477;28;20590;-82
2022/04/24 06:47:04;;;;;;;;;;;;;;;;;;5032072;28;20403;-82
2022/04/24 06:49:30;;;;;;;;;;;;;;;;;;5050876;28;20011;-82
2022/04/24 06:51:56;;;;;;;;;;;;;;;;;;5032058;28;19924;-82
2022/04/24 06:54:22;;;;;;;;;;;;;;;;;;5060827;28;21266;-82
2022/04/24 06:56:48;;;;;;;;;;;;;;;;;;5039788;28;19974;-82
2022/04/24 06:59:14;;;;;;;;;;;;;;;;;;5047111;28;19927;-82
2022/04/24 07:01:40;;;;;;;;;;;;;;;;;;5037909;28;19939;-82
2022/04/24 07:04:06;;;;;;;;;;;;;;;;;;5051858;28;19967;-82
2022/04/24 07:06:32;;;;;;;;;;;;;;;;;;5050350;28;19924;-82
2022/04/24 07:08:58;;;;;;;;;;;;;;;;;;5026557;28;19946;-82
2022/04/24 07:11:23;;;;;;;;;;;;;;;;;;5054226;28;20334;-82
2022/04/24 07:13:49;;;;;;;;;;;;;;;;;;5030480;28;20489;-82
2022/04/24 07:16:18;;;;;;;;;;;;;;;;;;5064408;28;19955;-82
2022/04/24 07:18:44;;;;;;;;;;;;;;;;;;5037110;28;19927;-82
2022/04/24 07:21:10;;;;;;;;;;;;;;;;;;5045794;28;19963;-82
2022/04/24 07:23:37;;;;;;;;;;;;;;;;;;5053687;28;20410;-82
2022/04/24 07:26:03;;;;;;;;;;;;;;;;;;5031893;28;19993;-82
2022/04/24 07:28:31;;;;;;;;;;;;;;;;;;5054669;28;19920;-82
2022/04/24 07:30:59;;;;;;;;;;;;;;;;;;5069841;28;19974;-82
2022/04/24 07:33:34;;;;;;;;;;;;;;;;;;5062183;28;19930;-82
2022/04/24 07:36:04;;;;;;;;;;;;;;;;;;5069449;28;19924;-82
2022/04/24 07:38:41;;;;;;;;;;;;;;;;;;5059137;28;19935;-82
2022/04/24 07:41:22;;;;;;;;;;;;;;;;;;5024302;28;19931;-82
2022/04/24 07:43:49;;;;;;;;;;;;;;;;;;5058764;28;19928;-82
2022/04/24 07:46:16;;;;;;;;;;;;;;;;;;5052309;28;19958;-82
2022/04/24 07:48:58;;;;;;;;;;;;;;;;;;5024109;28;19987;-82
2022/04/24 07:51:35;;;;;;;;;;;;;;;;;;5031931;28;19932;-83
2022/04/24 07:54:02;;;;;;;;;;;;;;;;;;4993657;28;19935;-82
2022/04/24 07:56:29;;;;;;;;;;;;;;;;;;5032154;28;20718;-82
2022/04/24 07:58:55;;;;;;;;;;;;;;;;;;5032005;28;19931;-83
2022/04/24 08:01:21;;;;;;;;;;;;;;;;;;5015873;28;19920;-83
2022/04/24 08:03:47;;;;;;;;;;;;;;;;;;5033400;28;20350;-83
2022/04/24 08:06:15;;;;;;;;;;;;;;;;;;5022704;28;19935;-82
2022/04/24 08:08:41;;;;;;;;;;;;;;;;;;5029252;28;19920;-82
2022/04/24 08:11:07;;;;;;;;;;;;;;;;;;5025047;28;19928;-82
2022/04/24 08:13:33;;;;;;;;;;;;;;;;;;5028376;28;20365;-82
2022/04/24 08:16:01;;;;;;;;;;;;;;;;;;5013123;28;20271;-82
2022/04/24 08:18:27;;;;;;;;;;;;;;;;;;5012868;28;20009;-82
2022/04/24 08:20:53;;;;;;;;;;;;;;;;;;5030596;28;20309;-83
2022/04/24 08:23:20;;;;;;;;;;;;;;;;;;5077234;28;19928;-82
2022/04/24 08:25:46;;;;;;;;;;;;;;;;;;5035941;28;19924;-82
2022/04/24 08:28:15;;;;;;;;;;;;;;;;;;5051870;28;19928;-82
2022/04/24 08:30:43;;;;;;;;;;;;;;;;;;5054137;28;19924;-82
2022/04/24 08:33:09;;;;;;;;;;;;;;;;;;5053777;28;19963;-82
2022/04/24 08:35:35;;;;;;;;;;;;;;;;;;5045580;28;20080;-82
2022/04/24 08:38:01;;;;;;;;;;;;;;;;;;5028542;28;20531;-83
2022/04/24 08:40:27;;;;;;;;;;;;;;;;;;5039505;28;19973;-82
2022/04/24 08:42:53;;;;;;;;;;;;;;;;;;5036658;28;20026;-82
2022/04/24 08:45:19;;;;;;;;;;;;;;;;;;5053341;28;19927;-82
2022/04/24 08:47:45;;;;;;;;;;;;;;;;;;5054771;28;19921;-83
2022/04/24 08:50:11;;;;;;;;;;;;;;;;;;5053123;28;19924;-82
2022/04/24 08:52:37;;;;;;;;;;;;;;;;;;5055394;28;20408;-82
2022/04/24 08:55:03;;;;;;;;;;;;;;;;;;5034103;28;20274;-82
2022/04/24 08:57:30;;;;;;;;;;;;;;;;;;5059075;28;19923;-82
2022/04/24 08:59:56;;;;;;;;;;;;;;;;;;5051621;28;19973;-82
2022/04/24 09:02:22;;;;;;;;;;;;;;;;;;5057464;28;19928;-83
2022/04/24 09:04:48;;;;;;;;;;;;;;;;;;5040893;28;20023;-83
2022/04/24 09:07:20;;;;;;;;;;;;;;;;;;5034728;28;19932;-82
2022/04/24 09:09:46;;;;;;;;;;;;;;;;;;5056866;28;20006;-83
2022/04/24 09:12:12;;;;;;;;;;;;;;;;;;5034993;28;21327;-82
2022/04/24 09:14:38;;;;;;;;;;;;;;;;;;5057163;28;19919;-83
2022/04/24 09:17:04;;;;;;;;;;;;;;;;;;5031417;28;19924;-83
2022/04/24 09:19:30;;;;;;;;;;;;;;;;;;5036363;28;19947;-82
2022/04/24 09:21:56;;;;;;;;;;;;;;;;;;5047868;28;20473;-82
2022/04/24 09:24:22;;;;;;;;;;;;;;;;;;5071228;28;19928;-83
2022/04/24 09:26:48;;;;;;;;;;;;;;;;;;5032940;28;19928;-83
2022/04/24 09:29:14;;;;;;;;;;;;;;;;;;5031317;28;19920;-83
2022/04/24 09:31:40;;;;;;;;;;;;;;;;;;5055482;28;19938;-83
2022/04/24 09:34:06;;;;;;;;;;;;;;;;;;5033476;28;19920;-83
2022/04/24 09:36:32;;;;;;;;;;;;;;;;;;5047229;28;19924;-83
2022/04/24 09:38:58;;;;;;;;;;;;;;;;;;5044046;28;19975;-83
2022/04/24 09:41:25;;;;;;;;;;;;;;;;;;5049415;28;19931;-83
2022/04/24 09:43:52;;;;;;;;;;;;;;;;;;5056777;28;19982;-83
2022/04/24 09:46:18;;;;;;;;;;;;;;;;;;5040544;28;19988;-83
2022/04/24 09:48:44;;;;;;;;;;;;;;;;;;5045032;28;19928;-82
2022/04/24 09:51:10;;;;;;;;;;;;;;;;;;5023931;28;20026;-82
2022/04/24 09:53:36;;;;;;;;;;;;;;;;;;5049949;28;20058;-82
2022/04/24 09:56:02;;;;;;;;;;;;;;;;;;5042350;28;19924;-81
2022/04/24 09:58:28;;;;;;;;;;;;;;;;;;5034441;28;19924;-84
2022/04/24 10:00:54;;;;;;;;;;;;;;;;;;5045469;28;19974;-83
2022/04/24 10:03:20;;;;;;;;;;;;;;;;;;5052466;28;19932;-83
2022/04/24 10:05:47;;;;;;;;;;;;;;;;;;5052497;28;19924;-83
2022/04/24 10:08:13;;;;;;;;;;;;;;;;;;5050665;28;20498;-83
2022/04/24 10:10:39;;;;;;;;;;;;;;;;;;5046623;28;19928;-83
2022/04/24 10:13:05;;;;;;;;;;;;;;;;;;5057128;28;20084;-83
2022/04/24 10:15:31;;;;;;;;;;;;;;;;;;5052953;28;21115;-83
2022/04/24 10:17:57;;;;;;;;;;;;;;;;;;5033938;28;19928;-83
2022/04/24 10:20:23;;;;;;;;;;;;;;;;;;5057974;28;19935;-83
2022/04/24 10:22:50;;;;;;;;;;;;;;;;;;5049508;28;20310;-83
2022/04/24 10:25:18;;;;;;;;;;;;;;;;;;5038582;28;19935;-82
2022/04/24 10:27:48;;;;;;;;;;;;;;;;;;5035793;28;19928;-83
2022/04/24 10:30:16;;;;;;;;;;;;;;;;;;5070056;28;20023;-83
2022/04/24 10:32:48;;;;;;;;;;;;;;;;;;5077879;28;19931;-83
2022/04/24 10:35:18;;;;;;;;;;;;;;;;;;5052896;28;19921;-80
2022/04/24 10:37:47;;;;;;;;;;;;;;;;;;5070103;28;19928;-80
2022/04/24 10:40:17;;;;;;;;;;;;;;;;;;5052188;28;19920;-81
2022/04/24 10:42:43;;;;;;;;;;;;;;;;;;5034532;28;19954;-81
2022/04/24 10:45:09;;;;;;;;;;;;;;;;;;5039442;28;19924;-82
2022/04/24 10:47:41;;;;;;;;;;;;;;;;;;5040257;28;19931;-82
2022/04/24 10:50:07;;;;;;;;;;;;;;;;;;5043142;28;19947;-81
2022/04/24 10:52:33;;;;;;;;;;;;;;;;;;5051716;28;19920;-81
2022/04/24 10:55:00;;;;;;;;;;;;;;;;;;5031502;28;20333;-82
2022/04/24 10:57:28;;;;;;;;;;;;;;;;;;5048993;28;20278;-81
2022/04/24 10:59:55;;;;;;;;;;;;;;;;;;5035247;28;19932;-82
2022/04/24 11:02:23;;;;;;;;;;;;;;;;;;5054544;28;20066;-82
2022/04/24 11:04:49;;;;;;;;;;;;;;;;;;5055167;28;19995;-82
2022/04/24 11:07:15;;;;;;;;;;;;;;;;;;5049581;28;19927;-82
2022/04/24 11:09:40;;;;;;;;;;;;;;;;;;5054886;28;19996;-82
2022/04/24 11:12:07;;;;;;;;;;;;;;;;;;5064867;28;20003;-82
2022/04/24 11:14:42;;;;;;;;;;;;;;;;;;5035365;28;19982;-82
2022/04/24 11:17:07;;;;;;;;;;;;;;;;;;5044821;28;20402;-82
2022/04/24 11:19:35;;;;;;;;;;;;;;;;;;5051640;28;19971;-82
2022/04/24 11:22:03;;;;;;;;;;;;;;;;;;5032488;28;19993;-82
2022/04/24 11:24:30;;;;;;;;;;;;;;;;;;5042729;28;19977;-82
2022/04/24 11:26:57;;;;;;;;;;;;;;;;;;5052352;28;19927;-82
2022/04/24 11:29:24;;;;;;;;;;;;;;;;;;5057301;28;19967;-82
2022/04/24 11:31:52;;;;;;;;;;;;;;;;;;5057839;28;19932;-82
2022/04/24 11:34:19;;;;;;;;;;;;;;;;;;5055317;28;19927;-82
2022/04/24 11:36:45;;;;;;;;;;;;;;;;;;5055317;28;19924;-82
2022/04/24 11:39:11;;;;;;;;;;;;;;;;;;5049545;28;19928;-82
2022/04/24 11:41:36;;;;;;;;;;;;;;;;;;5051960;28;20288;-81
2022/04/24 11:44:03;;;;;;;;;;;;;;;;;;5047986;28;20282;-82
2022/04/24 11:51:59;;;;;;;;;;;;;;;;;;5049214;28;19926;-81
2022/04/24 11:54:25;;;;;;;;;;;;;;;;;;5056922;28;19924;-81
2022/04/24 11:56:51;;;;;;;;;;;;;;;;;;5056224;28;20409;-82
2022/04/24 11:59:18;;;;;;;;;;;;;;;;;;5054520;28;19935;-82
2022/04/24 12:01:44;;;;;;;;;;;;;;;;;;5056951;28;20264;-82
2022/04/24 12:04:10;;;;;;;;;;;;;;;;;;5052356;28;20389;-82
2022/04/24 12:06:36;;;;;;;;;;;;;;;;;;5057117;28;20046;-82
2022/04/24 12:09:02;;;;;;;;;;;;;;;;;;5051214;28;20273;-83
2022/04/24 12:11:28;;;;;;;;;;;;;;;;;;5054703;28;19931;-82
2022/04/24 12:13:54;;;;;;;;;;;;;;;;;;5051308;28;19924;-83
2022/04/24 12:16:20;;;;;;;;;;;;;;;;;;5053175;28;19924;-82
2022/04/24 12:18:46;;;;;;;;;;;;;;;;;;5033981;28;19924;-82
2022/04/24 12:21:12;;;;;;;;;;;;;;;;;;5048156;28;20939;-82
2022/04/24 12:23:38;;;;;;;;;;;;;;;;;;5056729;28;19932;-82
2022/04/24 12:26:04;;;;;;;;;;;;;;;;;;5049870;28;19935;-82
2022/04/24 12:28:31;;;;;;;;;;;;;;;;;;5054700;28;19935;-82
2022/04/24 12:30:57;;;;;;;;;;;;;;;;;;5050000;28;19924;-82
2022/04/24 12:33:23;;;;;;;;;;;;;;;;;;5032479;28;19935;-83
2022/04/24 12:35:49;;;;;;;;;;;;;;;;;;5056892;28;19959;-82
2022/04/24 12:38:15;;;;;;;;;;;;;;;;;;5035479;28;19942;-82
2022/04/24 12:40:41;;;;;;;;;;;;;;;;;;5036588;28;19963;-82
2022/04/24 12:43:07;;;;;;;;;;;;;;;;;;5051688;28;20849;-82
2022/04/24 12:45:33;;;;;;;;;;;;;;;;;;5037345;28;20010;-83
2022/04/24 12:47:59;;;;;;;;;;;;;;;;;;5051879;28;19965;-83
2022/04/24 12:50:25;;;;;;;;;;;;;;;;;;5074247;28;19920;-82
2022/04/24 12:52:50;;;;;;;;;;;;;;;;;;5038751;28;20415;-82
2022/04/24 12:55:16;;;;;;;;;;;;;;;;;;5050010;28;19971;-82
2022/04/24 12:57:42;;;;;;;;;;;;;;;;;;5053338;28;19931;-82
2022/04/24 13:00:08;;;;;;;;;;;;;;;;;;5049899;28;19932;-83
2022/04/24 13:02:34;;;;;;;;;;;;;;;;;;5050424;28;19999;-82
2022/04/24 13:05:00;;;;;;;;;;;;;;;;;;5043873;28;19935;-82
2022/04/24 13:07:27;;;;;;;;;;;;;;;;;;5046935;28;19932;-81
2022/04/24 13:09:53;;;;;;;;;;;;;;;;;;5046122;28;19927;-81
2022/04/24 13:12:19;;;;;;;;;;;;;;;;;;5062727;28;19928;-81
2022/04/24 13:14:45;;;;;;;;;;;;;;;;;;5046546;28;19928;-81
2022/04/24 13:19:56;;;;;;;;;;;;;;;;;;5044677;28;20035;-82
2022/04/24 13:22:22;;;;;;;;;;;;;;;;;;5050423;28;20370;-82
2022/04/24 13:24:48;;;;;;;;;;;;;;;;;;5045068;28;19955;-82
2022/04/24 13:27:14;;;;;;;;;;;;;;;;;;5022533;28;19928;-82
2022/04/24 13:29:40;;;;;;;;;;;;;;;;;;5032187;28;20293;-82
2022/04/24 13:32:07;;;;;;;;;;;;;;;;;;5027041;28;20364;-82
2022/04/24 13:34:33;;;;;;;;;;;;;;;;;;5045811;28;20484;-82
2022/04/24 13:39:44;;;;;;;;;;;;;;;;;;5069454;28;19920;-82
2022/04/24 13:42:13;;;;;;;;;;;;;;;;;;5037723;28;19939;-83
2022/04/24 13:44:39;;;;;;;;;;;;;;;;;;5056643;28;19928;-83
2022/04/24 13:47:06;;;;;;;;;;;;;;;;;;5066229;28;20317;-83
2022/04/24 13:49:33;;;;;;;;;;;;;;;;;;5056118;28;20142;-83
2022/04/24 13:51:59;;;;;;;;;;;;;;;;;;5047387;28;19920;-82
2022/04/24 13:54:26;;;;;;;;;;;;;;;;;;5070973;28;20001;-82
2022/04/24 13:56:56;;;;;;;;;;;;;;;;;;5070480;28;19920;-82
2022/04/24 13:59:22;;;;;;;;;;;;;;;;;;5068403;28;19928;-82
2022/04/24 14:01:49;;;;;;;;;;;;;;;;;;5075332;28;19931;-83
2022/04/24 14:04:15;;;;;;;;;;;;;;;;;;5076511;28;19943;-82
2022/04/24 14:06:42;;;;;;;;;;;;;;;;;;5058730;28;19920;-82
2022/04/24 14:09:08;;;;;;;;;;;;;;;;;;5047868;28;20380;-82
2022/04/24 14:11:34;;;;;;;;;;;;;;;;;;5076865;28;20476;-83
2022/04/24 14:14:00;;;;;;;;;;;;;;;;;;5043858;28;19936;-82
2022/04/24 14:16:26;;;;;;;;;;;;;;;;;;5033089;28;20397;-82
2022/04/24 14:18:52;;;;;;;;;;;;;;;;;;5029131;28;19981;-83
2022/04/24 14:21:18;;;;;;;;;;;;;;;;;;5049410;28;19936;-82
2022/04/24 14:23:44;;;;;;;;;;;;;;;;;;5045244;28;20396;-82
2022/04/24 14:26:10;;;;;;;;;;;;;;;;;;5045404;28;19985;-82
2022/04/24 14:28:36;;;;;;;;;;;;;;;;;;5037011;28;19928;-82
2022/04/24 14:31:01;;;;;;;;;;;;;;;;;;5044680;28;19943;-82
2022/04/24 14:33:27;;;;;;;;;;;;;;;;;;5048279;28;19981;-82
2022/04/24 14:35:53;;;;;;;;;;;;;;;;;;5046931;28;19923;-82
2022/04/24 14:38:19;;;;;;;;;;;;;;;;;;5034119;28;20073;-82
2022/04/24 14:40:45;;;;;;;;;;;;;;;;;;5050992;28;20408;-81
2022/04/24 14:43:12;;;;;;;;;;;;;;;;;;5065979;28;21078;-82
2022/04/24 14:56:53;;;;;;;;;;;;;;;;;;5055891;28;19969;-82
2022/04/24 14:59:20;;;;;;;;;;;;;;;;;;5054259;28;19924;-81
2022/04/24 15:01:46;;;;;;;;;;;;;;;;;;5037495;28;20031;-81
2022/04/24 15:04:12;;;;;;;;;;;;;;;;;;5047833;28;22073;-81
2022/04/24 15:06:38;;;;;;;;;;;;;;;;;;5033361;28;19924;-82
2022/04/24 15:09:04;;;;;;;;;;;;;;;;;;5026749;28;19974;-80
2022/04/24 15:11:30;;;;;;;;;;;;;;;;;;5052483;28;19928;-81
2022/04/24 15:13:56;;;;;;;;;;;;;;;;;;5033805;28;20369;-80
2022/04/24 15:16:22;;;;;;;;;;;;;;;;;;5053769;28;20017;-80
2022/04/24 15:18:48;;;;;;;;;;;;;;;;;;5077082;28;19926;-80
2022/04/24 15:21:15;;;;;;;;;;;;;;;;;;5045083;28;20023;-80
2022/04/24 15:23:49;;;;;;;;;;;;;;;;;;5054290;28;19954;-80
2022/04/24 15:26:16;;;;;;;;;;;;;;;;;;5032500;28;19924;-80
2022/04/24 15:28:42;;;;;;;;;;;;;;;;;;5053258;28;19924;-80
2022/04/24 15:31:09;;;;;;;;;;;;;;;;;;5042372;28;19928;-81
2022/04/24 15:33:35;;;;;;;;;;;;;;;;;;5052740;28;19928;-81
2022/04/24 15:36:01;;;;;;;;;;;;;;;;;;5065014;28;20273;-81
2022/04/24 15:38:27;;;;;;;;;;;;;;;;;;5065870;28;19998;-81
2022/04/24 15:40:53;;;;;;;;;;;;;;;;;;5043862;28;19935;-81
2022/04/24 15:43:19;;;;;;;;;;;;;;;;;;5069521;28;19954;-81
2022/04/24 15:45:44;;;;;;;;;;;;;;;;;;5060483;28;19924;-80
2022/04/24 15:48:10;;;;;;;;;;;;;;;;;;5044163;28;19935;-81
2022/04/24 15:50:38;;;;;;;;;;;;;;;;;;5050814;28;19928;-80
2022/04/24 15:53:04;;;;;;;;;;;;;;;;;;5049856;28;19924;-80
2022/04/24 15:55:34;;;;;;;;;;;;;;;;;;5078405;28;19923;-80
2022/04/24 15:58:00;;;;;;;;;;;;;;;;;;5035708;28;19924;-80
2022/04/24 16:00:26;;;;;;;;;;;;;;;;;;5058928;28;19947;-80
2022/04/24 16:02:56;;;;;;;;;;;;;;;;;;5050569;28;19924;-80
2022/04/24 16:05:23;;;;;;;;;;;;;;;;;;5055753;28;23255;-81
2022/04/24 16:07:52;;;;;;;;;;;;;;;;;;5051642;28;20187;-80
2022/04/24 16:10:19;;;;;;;;;;;;;;;;;;5051741;28;19927;-80
2022/04/24 16:12:47;;;;;;;;;;;;;;;;;;5036311;28;19927;-80
2022/04/24 16:15:14;;;;;;;;;;;;;;;;;;5064771;28;19928;-80
2022/04/24 16:17:40;;;;;;;;;;;;;;;;;;5069791;28;20748;-80
2022/04/24 16:20:08;;;;;;;;;;;;;;;;;;5054361;28;19923;-81
2022/04/24 16:22:34;;;;;;;;;;;;;;;;;;5047967;28;19971;-82
2022/04/24 16:25:00;;;;;;;;;;;;;;;;;;5028189;28;20010;-80
2022/04/24 16:27:27;;;;;;;;;;;;;;;;;;5055810;28;19920;-81
2022/04/24 16:30:01;;;;;;;;;;;;;;;;;;5027381;28;21769;-80
2022/04/24 16:32:27;;;;;;;;;;;;;;;;;;5066376;28;19928;-79
2022/04/24 16:34:52;;;;;;;;;;;;;;;;;;5048908;28;19931;-80
2022/04/24 16:37:20;;;;;;;;;;;;;;;;;;5050344;28;19920;-79
2022/04/24 16:39:48;;;;;;;;;;;;;;;;;;5050277;28;19967;-80
2022/04/24 16:42:14;;;;;;;;;;;;;;;;;;5026953;28;20050;-80
2022/04/24 16:44:40;;;;;;;;;;;;;;;;;;5057503;28;19928;-80
2022/04/24 16:47:06;;;;;;;;;;;;;;;;;;5047869;28;19928;-80
2022/04/24 16:49:32;;;;;;;;;;;;;;;;;;5053675;28;20425;-81
2022/04/24 17:00:13;;;;;;;;;;;;;;;;;;5050063;28;20554;-81
2022/04/24 17:02:39;;;;;;;;;;;;;;;;;;5053580;28;19939;-80
2022/04/24 17:05:05;;;;;;;;;;;;;;;;;;5032748;28;19935;-81
2022/04/24 17:07:34;;;;;;;;;;;;;;;;;;5037464;28;19923;-80
2022/04/24 17:10:00;;;;;;;;;;;;;;;;;;5049970;28;19924;-82
2022/04/24 17:12:26;;;;;;;;;;;;;;;;;;5050845;28;20598;-82